Aviation Digital Data Service (ADDS)

Output produced by METARs form (1948 UTC 08 February 2023)
found at http://aviationweather.gov/metar/data/
 
METAR text: KSBS 081935Z AUTO 00000KT 10SM OVC060 M08/M12 A3014 RMK AO1 T10761122
Conditions at: KSBS (STEAMBOAT SPRING, CO, US) observed 1935 UTC 08 February 2023
Temperature: -7.6°C (18°F)
Dewpoint: -12.2°C (10°F) [RH = 70%]
Pressure (altimeter): 30.14 inches Hg (1020.7 mb)
Winds: calm
Visibility: 10 or more miles (16+ km)
Ceiling: 6000 feet AGL
Clouds: overcast cloud deck at 6000 feet AGL
Weather: automated observation with no human augmentation;
there may or may not be significant weather present at this time

METAR text: KSBS 081915Z AUTO 00000KT 10SM SCT050 OVC060 M07/M12 A3015 RMK AO1 T10691120
Conditions at: KSBS (STEAMBOAT SPRING, CO, US) observed 1915 UTC 08 February 2023
Temperature: -6.9°C (20°F)
Dewpoint: -12.0°C (10°F) [RH = 67%]
Pressure (altimeter): 30.15 inches Hg (1021.1 mb)
Winds: calm
Visibility: 10 or more miles (16+ km)
Ceiling: 6000 feet AGL
Clouds: scattered clouds at 5000 feet AGL
overcast cloud deck at 6000 feet AGL
Weather: automated observation with no human augmentation;
there may or may not be significant weather present at this time

METAR text: KSBS 081855Z AUTO 00000KT 10SM SCT030 SCT036 OVC060 M09/M13 A3018 RMK AO1 T10861127
Conditions at: KSBS (STEAMBOAT SPRING, CO, US) observed 1855 UTC 08 February 2023
Temperature: -8.6°C (17°F)
Dewpoint: -12.7°C ( 9°F) [RH = 72%]
Pressure (altimeter): 30.18 inches Hg (1022.1 mb)
Winds: calm
Visibility: 10 or more miles (16+ km)
Ceiling: 6000 feet AGL
Clouds: scattered clouds at 3000 feet AGL
scattered clouds at 3600 feet AGL
overcast cloud deck at 6000 feet AGL
Weather: automated observation with no human augmentation;
there may or may not be significant weather present at this time